createdAt,value
2019-02-26T00:00:49.678Z,86.27
2019-02-26T00:01:50.461Z,86.06
2019-02-26T00:02:50.610Z,86.47
2019-02-26T00:03:47.451Z,86.61
2019-02-26T00:04:49.137Z,86.93
2019-02-26T00:05:49.854Z,86.51
2019-02-26T00:06:49.242Z,86.30
2019-02-26T00:07:51.027Z,86.41
2019-02-26T00:08:51.299Z,86.41
2019-02-26T00:09:51.226Z,86.10
2019-02-26T00:10:47.408Z,86.76
2019-02-26T00:11:47.367Z,86.87
2019-02-26T00:12:47.352Z,86.72
2019-02-26T00:13:48.626Z,86.83
2019-02-26T00:14:47.884Z,86.83
2019-02-26T00:15:48.421Z,87.14
2019-02-26T00:16:49.286Z,86.41
2019-02-26T00:17:49.086Z,86.93
2019-02-26T00:18:47.289Z,86.20
2019-02-26T00:19:47.276Z,86.72
2019-02-26T00:20:47.268Z,86.83
2019-02-26T00:21:47.929Z,86.41
2019-02-26T00:22:47.243Z,86.41
2019-02-26T00:23:48.759Z,86.72
2019-02-26T00:24:47.221Z,87.04
2019-02-26T00:25:47.238Z,86.72
2019-02-26T00:26:47.206Z,86.76
2019-02-26T00:27:49.337Z,86.61
2019-02-26T00:28:47.203Z,86.66
2019-02-26T00:29:49.179Z,86.66
2019-02-26T00:30:47.159Z,86.66
2019-02-26T00:31:48.998Z,87.32
2019-02-26T00:32:47.141Z,87.01
2019-02-26T00:33:47.147Z,87.12
2019-02-26T00:34:47.109Z,87.22
2019-02-26T00:35:48.201Z,87.47
2019-02-26T00:36:47.126Z,87.26
2019-02-26T00:37:48.824Z,87.53
2019-02-26T00:38:47.067Z,87.53
2019-02-26T00:39:47.474Z,87.53
2019-02-26T00:40:47.046Z,87.88
2019-02-26T00:41:49.365Z,87.57
2019-02-26T00:42:50.262Z,87.78
2019-02-26T00:43:51.184Z,87.88
2019-02-26T00:44:51.354Z,87.88
2019-02-26T00:45:47.989Z,87.47
2019-02-26T00:46:46.982Z,88.03
2019-02-26T00:47:46.992Z,88.34
2019-02-26T00:48:46.984Z,88.55
2019-02-26T00:49:48.535Z,88.51
2019-02-26T00:50:46.959Z,88.62
2019-02-26T00:51:48.297Z,88.93
2019-02-26T00:52:46.923Z,88.65
2019-02-26T00:53:48.829Z,88.87
2019-02-26T00:54:46.897Z,88.87
2019-02-26T00:55:46.902Z,88.87
2019-02-26T00:56:46.869Z,88.34
2019-02-26T00:57:46.861Z,88.24
2019-02-26T00:58:48.366Z,89.18
2019-02-26T00:59:48.087Z,89.18
2019-02-26T01:00:46.853Z,89.28
2019-02-26T01:01:48.225Z,89.49
2019-02-26T01:02:46.808Z,89.28
2019-02-26T01:03:47.573Z,89.32
2019-02-26T01:04:48.554Z,88.97
2019-02-26T01:05:46.800Z,89.64
2019-02-26T01:06:46.765Z,89.95
2019-02-26T01:07:49.348Z,89.95
2019-02-26T01:08:47.132Z,90.33
2019-02-26T01:09:47.885Z,90.22
2019-02-26T01:10:46.717Z,90.33
2019-02-26T01:11:47.690Z,90.33
2019-02-26T01:12:46.718Z,89.91
2019-02-26T01:13:48.286Z,89.91
2019-02-26T01:14:48.176Z,90.33
2019-02-26T01:15:46.687Z,90.33
2019-02-26T01:16:48.306Z,89.91
2019-02-26T01:17:46.652Z,90.33
2019-02-26T01:18:48.786Z,90.12
2019-02-26T01:19:46.635Z,90.33
2019-02-26T01:20:50.316Z,90.33
2019-02-26T01:21:46.604Z,90.22
2019-02-26T01:22:46.586Z,90.37
2019-02-26T01:23:46.577Z,90.43
2019-02-26T01:24:48.150Z,90.22
2019-02-26T01:25:46.568Z,89.95
2019-02-26T01:26:46.564Z,90.33
2019-02-26T01:27:48.221Z,90.01
2019-02-26T01:28:49.011Z,89.91
2019-02-26T01:29:47.254Z,89.97
2019-02-26T01:30:51.260Z,89.76
2019-02-26T01:31:46.523Z,90.08
2019-02-26T01:32:46.477Z,89.76
2019-02-26T01:33:48.420Z,89.81
2019-02-26T01:34:47.808Z,89.56
2019-02-26T01:35:46.451Z,89.76
2019-02-26T01:36:47.762Z,89.45
2019-02-26T01:37:46.443Z,89.45
2019-02-26T01:38:48.690Z,89.45
2019-02-26T01:39:47.251Z,89.45
2019-02-26T01:40:48.452Z,89.45
2019-02-26T01:41:47.939Z,88.93
2019-02-26T01:42:49.781Z,89.03
2019-02-26T01:43:47.353Z,89.31
2019-02-26T01:44:46.347Z,89.41
2019-02-26T01:45:48.454Z,89.34
2019-02-26T01:46:46.324Z,89.56
2019-02-26T01:47:48.267Z,89.56
2019-02-26T01:48:46.309Z,89.03
2019-02-26T01:49:47.217Z,89.14
2019-02-26T01:50:46.306Z,88.93
2019-02-26T01:51:47.947Z,89.49
2019-02-26T01:52:46.281Z,89.45
2019-02-26T01:53:46.840Z,89.14
2019-02-26T01:54:46.237Z,89.03
2019-02-26T01:55:48.210Z,89.14
2019-02-26T01:56:46.218Z,89.07
2019-02-26T01:57:46.205Z,89.03
2019-02-26T01:58:46.199Z,89.81
2019-02-26T01:59:47.428Z,89.59
2019-02-26T02:00:46.216Z,89.59
2019-02-26T02:01:47.086Z,89.70
2019-02-26T02:02:46.150Z,89.59
2019-02-26T02:03:48.260Z,89.91
2019-02-26T02:04:46.152Z,89.49
2019-02-26T02:05:47.853Z,89.59
2019-02-26T02:06:46.107Z,89.87
2019-02-26T02:07:47.202Z,89.56
2019-02-26T02:08:48.119Z,88.97
2019-02-26T02:09:48.661Z,89.34
2019-02-26T02:10:46.065Z,89.66
2019-02-26T02:11:46.069Z,89.34
2019-02-26T02:12:46.041Z,89.24
2019-02-26T02:13:46.047Z,89.34
2019-02-26T02:14:46.017Z,89.34
2019-02-26T02:15:46.559Z,89.03
2019-02-26T02:16:46.022Z,88.13
2019-02-26T02:17:45.991Z,88.13
2019-02-26T02:18:48.175Z,89.24
2019-02-26T02:19:45.961Z,88.62
2019-02-26T02:20:45.986Z,89.03
2019-02-26T02:21:47.082Z,89.34
2019-02-26T02:22:45.942Z,88.76
2019-02-26T02:23:46.602Z,88.76
2019-02-26T02:24:46.697Z,89.14
2019-02-26T02:25:45.921Z,89.03
2019-02-26T02:26:48.231Z,89.24
2019-02-26T02:27:49.702Z,89.34
2019-02-26T02:28:46.877Z,89.39
2019-02-26T02:29:46.160Z,89.03
2019-02-26T02:30:45.841Z,89.18
2019-02-26T02:31:45.843Z,89.28
2019-02-26T02:32:50.365Z,89.59
2019-02-26T02:33:46.806Z,89.49
2019-02-26T02:34:45.800Z,89.18
2019-02-26T02:35:45.813Z,89.03
2019-02-26T02:36:45.808Z,89.20
2019-02-26T02:37:45.770Z,89.34
2019-02-26T02:38:45.761Z,88.37
2019-02-26T02:39:45.749Z,88.82
2019-02-26T02:40:46.305Z,88.06
2019-02-26T02:41:48.772Z,88.06
2019-02-26T02:42:49.124Z,87.74
2019-02-26T02:43:45.700Z,88.06
2019-02-26T02:44:46.900Z,87.53
2019-02-26T02:45:47.473Z,87.99
2019-02-26T02:46:46.637Z,87.78
2019-02-26T02:47:45.659Z,88.16
2019-02-26T02:48:45.654Z,87.74
2019-02-26T02:49:45.668Z,87.57
2019-02-26T02:50:45.623Z,87.78
2019-02-26T02:51:45.613Z,87.47
2019-02-26T02:52:45.608Z,87.47
2019-02-26T02:53:47.689Z,87.99
2019-02-26T02:54:47.530Z,87.93
2019-02-26T02:55:47.022Z,88.03
2019-02-26T02:56:45.557Z,88.13
2019-02-26T02:57:48.662Z,88.34
2019-02-26T02:58:46.933Z,88.97
2019-02-26T02:59:45.521Z,88.55
2019-02-26T03:00:46.115Z,89.18
2019-02-26T03:01:48.379Z,89.07
2019-02-26T03:02:46.475Z,89.28
2019-02-26T03:03:47.621Z,89.43
2019-02-26T03:04:45.466Z,89.64
2019-02-26T03:05:45.872Z,89.32
2019-02-26T03:06:45.464Z,89.22
2019-02-26T03:07:50.343Z,89.53
2019-02-26T03:08:48.118Z,89.74
2019-02-26T03:09:45.832Z,89.32
2019-02-26T03:10:45.402Z,89.74
2019-02-26T03:11:46.570Z,89.74
2019-02-26T03:12:50.936Z,90.09
2019-02-26T03:13:48.377Z,90.09
2019-02-26T03:14:45.397Z,89.78
2019-02-26T03:15:47.379Z,90.41
2019-02-26T03:16:47.704Z,90.41
2019-02-26T03:17:45.334Z,90.09
2019-02-26T03:18:45.315Z,90.24
2019-02-26T03:19:45.342Z,90.20
2019-02-26T03:20:45.295Z,90.24
2019-02-26T03:21:47.117Z,90.14
2019-02-26T03:22:48.829Z,90.03
2019-02-26T03:23:45.634Z,90.52
2019-02-26T03:24:45.270Z,90.24
2019-02-26T03:25:47.183Z,90.41
2019-02-26T03:26:45.229Z,90.72
2019-02-26T03:27:45.224Z,90.72
2019-02-26T03:28:47.977Z,91.03
2019-02-26T03:29:47.227Z,91.71
2019-02-26T03:30:45.194Z,91.18
2019-02-26T03:31:49.146Z,91.56
2019-02-26T03:32:50.016Z,91.28
2019-02-26T03:33:46.151Z,91.91
2019-02-26T03:34:45.167Z,91.56
2019-02-26T03:35:45.131Z,91.87
2019-02-26T03:36:45.813Z,91.56
2019-02-26T03:37:45.106Z,91.56
2019-02-26T03:38:46.679Z,91.66
2019-02-26T03:39:45.120Z,91.56
2019-02-26T03:40:45.079Z,91.87
2019-02-26T03:41:46.053Z,91.87
2019-02-26T03:42:46.272Z,91.87
2019-02-26T03:43:45.047Z,91.56
2019-02-26T03:44:46.941Z,91.46
2019-02-26T03:45:47.334Z,91.25
2019-02-26T03:46:45.029Z,91.14
2019-02-26T03:47:44.999Z,91.14
2019-02-26T03:48:44.988Z,91.87
2019-02-26T03:49:44.980Z,91.87
2019-02-26T03:50:44.965Z,91.77
2019-02-26T03:51:44.981Z,92.08
2019-02-26T03:52:44.944Z,91.87
2019-02-26T03:53:44.956Z,91.28
2019-02-26T03:54:45.968Z,91.18
2019-02-26T03:55:44.908Z,90.87
2019-02-26T03:56:44.926Z,91.35
2019-02-26T03:57:47.336Z,91.39
2019-02-26T03:58:45.874Z,90.87
2019-02-26T03:59:44.868Z,91.39
2019-02-26T04:00:46.852Z,90.91
2019-02-26T04:01:44.876Z,91.18
2019-02-26T04:02:47.683Z,91.43
2019-02-26T04:03:44.843Z,91.85
2019-02-26T04:04:48.560Z,91.64
2019-02-26T04:05:44.837Z,91.85
2019-02-26T04:06:46.997Z,91.85
2019-02-26T04:07:44.788Z,92.38
2019-02-26T04:08:47.729Z,92.16
2019-02-26T04:09:46.676Z,92.27
2019-02-26T04:10:47.224Z,92.00
2019-02-26T04:11:47.584Z,92.10
2019-02-26T04:12:48.251Z,92.10
2019-02-26T04:13:45.990Z,92.63
2019-02-26T04:14:44.701Z,92.83
2019-02-26T04:15:44.704Z,93.15
2019-02-26T04:16:44.704Z,92.94
2019-02-26T04:17:44.670Z,92.42
2019-02-26T04:18:44.680Z,92.52
2019-02-26T04:19:44.740Z,92.83
2019-02-26T04:20:44.642Z,92.73
2019-02-26T04:21:44.650Z,92.57
2019-02-26T04:22:48.941Z,92.73
2019-02-26T04:23:46.663Z,93.19
2019-02-26T04:24:44.599Z,92.88
2019-02-26T04:25:44.610Z,93.30
2019-02-26T04:26:44.592Z,93.30
2019-02-26T04:27:44.569Z,93.40
2019-02-26T04:28:45.539Z,92.88
2019-02-26T04:29:46.902Z,92.98
2019-02-26T04:30:47.068Z,93.40
2019-02-26T04:31:46.428Z,92.98
2019-02-26T04:32:46.294Z,93.30
2019-02-26T04:33:44.516Z,93.08
2019-02-26T04:34:44.516Z,92.88
2019-02-26T04:35:45.715Z,93.71
2019-02-26T04:36:45.348Z,93.82
2019-02-26T04:37:44.450Z,93.71
2019-02-26T04:38:45.647Z,93.51
2019-02-26T04:39:47.294Z,94.34
2019-02-26T04:40:44.436Z,94.13
2019-02-26T04:41:44.407Z,94.13
2019-02-26T04:42:46.031Z,93.87
2019-02-26T04:43:44.387Z,94.18
2019-02-26T04:44:47.638Z,94.38
2019-02-26T04:45:45.369Z,94.38
2019-02-26T04:46:44.359Z,94.38
2019-02-26T04:47:46.641Z,93.76
2019-02-26T04:48:44.328Z,94.49
2019-02-26T04:49:44.341Z,94.07
2019-02-26T04:50:44.657Z,94.18
2019-02-26T04:51:45.146Z,94.28
2019-02-26T04:52:44.317Z,94.07
2019-02-26T04:53:44.282Z,93.97
2019-02-26T04:54:44.280Z,94.07
2019-02-26T04:55:44.883Z,94.18
2019-02-26T04:56:45.118Z,94.12
2019-02-26T04:57:46.481Z,94.22
2019-02-26T04:58:45.902Z,94.22
2019-02-26T04:59:44.216Z,93.80
2019-02-26T05:00:44.202Z,94.12
2019-02-26T05:01:46.753Z,94.32
2019-02-26T05:02:44.207Z,94.95
2019-02-26T05:03:44.178Z,94.54
2019-02-26T05:04:44.183Z,94.74
2019-02-26T05:05:44.144Z,94.64
2019-02-26T05:06:44.138Z,94.64
2019-02-26T05:07:46.890Z,94.43
2019-02-26T05:08:44.148Z,94.54
2019-02-26T05:09:44.098Z,94.54
2019-02-26T05:10:46.232Z,94.43
2019-02-26T05:11:44.091Z,94.22
2019-02-26T05:12:44.097Z,94.74
2019-02-26T05:13:44.091Z,94.74
2019-02-26T05:14:44.064Z,94.74
2019-02-26T05:15:44.042Z,94.85
2019-02-26T05:16:44.067Z,95.06
2019-02-26T05:17:44.012Z,94.74
2019-02-26T05:18:46.447Z,94.64
2019-02-26T05:19:46.716Z,95.27
2019-02-26T05:20:48.134Z,95.17
2019-02-26T05:21:43.968Z,95.06
2019-02-26T05:22:43.957Z,95.17
2019-02-26T05:23:43.974Z,94.85
2019-02-26T05:24:47.102Z,95.21
2019-02-26T05:25:44.887Z,95.27
2019-02-26T05:26:43.952Z,95.10
2019-02-26T05:27:46.183Z,95.48
2019-02-26T05:28:46.390Z,95.21
2019-02-26T05:29:46.591Z,95.21
2019-02-26T05:30:46.360Z,95.21
2019-02-26T05:31:43.858Z,95.42
2019-02-26T05:32:43.864Z,95.10
2019-02-26T05:33:43.849Z,95.00
2019-02-26T05:34:45.937Z,95.00
2019-02-26T05:35:46.128Z,95.00
2019-02-26T05:36:46.200Z,95.21
2019-02-26T05:37:43.796Z,94.68
2019-02-26T05:38:43.796Z,95.21
2019-02-26T05:39:45.907Z,95.42
2019-02-26T05:40:45.292Z,94.89
2019-02-26T05:41:43.748Z,95.00
2019-02-26T05:42:43.738Z,94.89
2019-02-26T05:43:49.439Z,95.46
2019-02-26T05:44:44.743Z,95.52
2019-02-26T05:45:43.714Z,95.25
2019-02-26T05:46:43.703Z,95.25
2019-02-26T05:47:46.027Z,95.52
2019-02-26T05:48:45.705Z,95.42
2019-02-26T05:49:45.843Z,95.15
2019-02-26T05:50:44.778Z,95.46
2019-02-26T05:51:43.666Z,95.67
2019-02-26T05:52:43.643Z,95.36
2019-02-26T05:53:43.624Z,95.15
2019-02-26T05:54:43.613Z,95.15
2019-02-26T05:55:45.094Z,95.21
2019-02-26T05:56:46.145Z,95.46
2019-02-26T05:57:44.586Z,95.36
2019-02-26T05:58:46.355Z,95.04
2019-02-26T05:59:43.553Z,94.83
2019-02-26T06:00:43.568Z,95.56
2019-02-26T06:01:44.295Z,95.78
2019-02-26T06:02:47.313Z,95.67
2019-02-26T06:03:46.083Z,95.67
2019-02-26T06:04:44.592Z,95.78
2019-02-26T06:05:45.861Z,95.88
2019-02-26T06:06:43.483Z,95.62
2019-02-26T06:07:43.469Z,95.84
2019-02-26T06:08:43.482Z,95.67
2019-02-26T06:09:45.358Z,95.25
2019-02-26T06:10:43.434Z,94.79
2019-02-26T06:11:49.357Z,95.15
2019-02-26T06:12:46.611Z,95.15
2019-02-26T06:13:43.412Z,95.73
2019-02-26T06:14:44.330Z,95.62
2019-02-26T06:15:43.389Z,95.84
2019-02-26T06:16:45.642Z,95.84
2019-02-26T06:17:45.715Z,95.84
2019-02-26T06:18:44.044Z,95.73
2019-02-26T06:19:44.996Z,95.94
2019-02-26T06:20:43.328Z,96.25
2019-02-26T06:21:44.747Z,96.25
2019-02-26T06:22:43.336Z,95.84
2019-02-26T06:23:43.300Z,96.15
2019-02-26T06:24:43.288Z,95.73
2019-02-26T06:25:43.277Z,95.62
2019-02-26T06:26:45.389Z,96.25
2019-02-26T06:27:43.278Z,95.79
2019-02-26T06:28:45.443Z,95.79
2019-02-26T06:29:43.234Z,96.15
2019-02-26T06:30:43.215Z,96.25
2019-02-26T06:31:45.067Z,96.25
2019-02-26T06:32:44.689Z,96.36
2019-02-26T06:33:45.365Z,95.68
2019-02-26T06:34:43.173Z,96.11
2019-02-26T06:35:43.165Z,95.68
2019-02-26T06:36:44.320Z,96.21
2019-02-26T06:37:43.172Z,96.11
2019-02-26T06:38:43.133Z,96.00
2019-02-26T06:39:43.126Z,95.79
2019-02-26T06:40:47.154Z,95.79
2019-02-26T06:41:45.005Z,95.90
2019-02-26T06:42:43.109Z,95.68
2019-02-26T06:43:47.588Z,95.58
2019-02-26T06:44:46.429Z,95.79
2019-02-26T06:45:43.724Z,95.62
2019-02-26T06:46:43.056Z,95.73
2019-02-26T06:47:45.299Z,95.68
2019-02-26T06:48:43.018Z,95.52
2019-02-26T06:49:43.849Z,95.68
2019-02-26T06:50:43.519Z,94.95
2019-02-26T06:51:44.978Z,95.06
2019-02-26T06:52:44.701Z,95.37
2019-02-26T06:53:44.996Z,95.06
2019-02-26T06:54:47.813Z,94.95
2019-02-26T06:55:43.967Z,94.95
2019-02-26T06:56:44.311Z,95.27
2019-02-26T06:57:46.404Z,95.01
2019-02-26T06:58:44.933Z,95.01
2019-02-26T06:59:42.920Z,95.37
2019-02-26T07:00:43.684Z,95.58
2019-02-26T07:01:42.881Z,95.17
2019-02-26T07:02:45.479Z,95.17
2019-02-26T07:03:42.854Z,95.37
2019-02-26T07:04:42.874Z,95.37
2019-02-26T07:05:46.459Z,94.85
2019-02-26T07:06:42.822Z,95.12
2019-02-26T07:07:42.816Z,95.06
2019-02-26T07:08:44.513Z,95.23
2019-02-26T07:09:43.925Z,95.17
2019-02-26T07:10:42.812Z,95.27
2019-02-26T07:11:42.768Z,95.33
2019-02-26T07:12:43.544Z,95.01
2019-02-26T07:13:43.882Z,94.81
2019-02-26T07:14:42.734Z,94.81
2019-02-26T07:15:42.959Z,95.12
2019-02-26T07:16:42.742Z,95.12
2019-02-26T07:17:43.077Z,95.33
2019-02-26T07:18:42.690Z,95.12
2019-02-26T07:19:42.706Z,95.23
2019-02-26T07:20:46.656Z,94.97
2019-02-26T07:21:45.513Z,95.33
2019-02-26T07:22:44.037Z,94.97
2019-02-26T07:23:42.641Z,94.87
2019-02-26T07:24:44.544Z,94.87
2019-02-26T07:25:44.082Z,95.50
2019-02-26T07:26:44.128Z,94.93
2019-02-26T07:27:42.617Z,94.93
2019-02-26T07:28:44.085Z,95.35
2019-02-26T07:29:44.959Z,95.25
2019-02-26T07:30:44.648Z,94.93
2019-02-26T07:31:42.551Z,95.09
2019-02-26T07:32:45.048Z,94.82
2019-02-26T07:33:42.528Z,95.14
2019-02-26T07:34:44.636Z,94.51
2019-02-26T07:35:42.527Z,94.72
2019-02-26T07:36:43.355Z,94.89
2019-02-26T07:37:42.507Z,95.31
2019-02-26T07:38:46.037Z,94.57
2019-02-26T07:39:44.382Z,94.99
2019-02-26T07:40:42.455Z,95.20
2019-02-26T07:41:44.507Z,95.15
2019-02-26T07:42:44.761Z,94.74
2019-02-26T07:43:46.330Z,94.53
2019-02-26T07:44:42.418Z,94.32
2019-02-26T07:45:42.397Z,94.32
2019-02-26T07:46:43.198Z,94.21
2019-02-26T07:47:42.396Z,94.11
2019-02-26T07:48:42.382Z,94.27
2019-02-26T07:49:42.356Z,94.49
2019-02-26T07:50:45.368Z,93.96
2019-02-26T07:51:43.031Z,93.92
2019-02-26T07:52:42.342Z,94.34
2019-02-26T07:53:47.993Z,93.92
2019-02-26T07:54:44.800Z,93.67
2019-02-26T07:55:42.450Z,94.15
2019-02-26T07:56:42.275Z,93.10
2019-02-26T07:57:43.632Z,92.65
2019-02-26T07:58:43.118Z,92.96
2019-02-26T07:59:42.669Z,92.33
2019-02-26T08:00:45.312Z,91.91
2019-02-26T08:01:44.363Z,91.46
2019-02-26T08:02:42.233Z,90.83
2019-02-26T08:03:43.931Z,91.14
2019-02-26T08:04:43.614Z,91.14
2019-02-26T08:05:42.180Z,91.14
2019-02-26T08:06:42.204Z,91.35
2019-02-26T08:07:43.974Z,91.46
2019-02-26T08:08:44.270Z,91.66
2019-02-26T08:09:42.138Z,90.83
2019-02-26T08:10:42.799Z,90.83
2019-02-26T08:11:43.900Z,90.52
2019-02-26T08:12:42.696Z,90.41
2019-02-26T08:13:42.119Z,90.41
2019-02-26T08:14:42.970Z,90.16
2019-02-26T08:15:42.082Z,90.26
2019-02-26T08:16:42.095Z,90.37
2019-02-26T08:17:45.581Z,89.54
2019-02-26T08:18:43.056Z,89.85
2019-02-26T08:19:44.873Z,89.95
2019-02-26T08:20:42.016Z,90.12
2019-02-26T08:21:42.043Z,89.75
2019-02-26T08:22:42.013Z,90.01
2019-02-26T08:23:43.604Z,89.60
2019-02-26T08:24:41.969Z,89.08
2019-02-26T08:25:41.967Z,89.04
2019-02-26T08:26:42.950Z,88.42
2019-02-26T08:27:41.961Z,88.42
2019-02-26T08:28:43.681Z,87.85
2019-02-26T08:29:41.914Z,87.12
2019-02-26T08:30:44.496Z,86.91
2019-02-26T08:31:44.670Z,86.67
2019-02-26T08:32:41.924Z,86.15
2019-02-26T08:33:41.873Z,87.19
2019-02-26T08:34:41.867Z,86.32
2019-02-26T08:35:41.859Z,86.52
2019-02-26T08:36:41.845Z,86.21
2019-02-26T08:37:41.845Z,86.11
2019-02-26T08:38:41.839Z,85.75
2019-02-26T08:39:41.809Z,85.41
2019-02-26T08:40:41.800Z,85.10
2019-02-26T08:41:41.782Z,83.84
2019-02-26T08:42:41.773Z,83.81
2019-02-26T08:43:44.128Z,83.50
2019-02-26T08:44:41.752Z,82.94
2019-02-26T08:45:41.761Z,82.98
2019-02-26T08:46:42.730Z,82.42
2019-02-26T08:47:41.713Z,82.53
2019-02-26T08:48:43.759Z,82.59
2019-02-26T08:49:43.452Z,81.97
2019-02-26T08:50:43.932Z,81.20
2019-02-26T08:51:41.674Z,80.89
2019-02-26T08:52:41.659Z,80.37
2019-02-26T08:53:41.688Z,80.65
2019-02-26T08:54:41.638Z,79.71
2019-02-26T08:55:41.628Z,79.27
2019-02-26T08:56:41.636Z,78.85
2019-02-26T08:57:41.617Z,78.23
2019-02-26T08:58:42.973Z,77.47
2019-02-26T08:59:42.252Z,77.98
2019-02-26T09:00:41.572Z,78.40
2019-02-26T09:01:41.578Z,77.36
2019-02-26T09:02:43.578Z,77.12
2019-02-26T09:03:41.565Z,78.26
2019-02-26T09:04:42.665Z,78.33
2019-02-26T09:05:41.547Z,78.16
2019-02-26T09:06:41.505Z,78.22
2019-02-26T09:07:43.309Z,78.12
2019-02-26T09:08:43.111Z,77.50
2019-02-26T09:09:41.487Z,77.50
2019-02-26T09:10:43.749Z,77.19
2019-02-26T09:11:41.449Z,77.19
2019-02-26T09:12:43.595Z,77.36
2019-02-26T09:13:43.750Z,76.50
2019-02-26T09:14:42.816Z,76.81
2019-02-26T09:15:43.189Z,76.87
2019-02-26T09:16:41.405Z,75.81
2019-02-26T09:17:42.139Z,75.49
2019-02-26T09:18:41.394Z,75.91
2019-02-26T09:19:41.360Z,75.46
2019-02-26T09:20:41.353Z,75.43
2019-02-26T09:21:42.601Z,74.60
2019-02-26T09:22:45.703Z,74.40
2019-02-26T09:23:42.318Z,74.15
2019-02-26T09:24:41.306Z,73.33
2019-02-26T09:25:41.330Z,73.43
2019-02-26T09:26:41.284Z,71.95
2019-02-26T09:27:42.902Z,72.47
2019-02-26T09:28:41.293Z,72.67
2019-02-26T09:29:44.289Z,71.92
2019-02-26T09:30:42.255Z,72.03
2019-02-26T09:31:41.229Z,71.37
2019-02-26T09:32:44.135Z,71.69
2019-02-26T09:33:43.451Z,70.83
2019-02-26T09:34:41.226Z,70.72
2019-02-26T09:35:41.184Z,69.90
2019-02-26T09:36:41.184Z,69.35
2019-02-26T09:37:42.809Z,68.84
2019-02-26T09:38:41.960Z,69.56
2019-02-26T09:39:41.140Z,68.40
2019-02-26T09:40:41.144Z,67.68
2019-02-26T09:41:44.924Z,67.65
2019-02-26T09:42:41.114Z,67.65
2019-02-26T09:43:43.176Z,66.61
2019-02-26T09:44:41.098Z,65.08
2019-02-26T09:45:43.105Z,66.07
2019-02-26T09:46:43.946Z,66.28
2019-02-26T09:47:41.051Z,64.09
2019-02-26T09:48:44.745Z,64.70
2019-02-26T09:49:41.062Z,65.39
2019-02-26T09:50:43.706Z,64.67
2019-02-26T09:51:41.005Z,64.06
2019-02-26T09:52:40.996Z,65.36
2019-02-26T09:53:41.016Z,65.60
2019-02-26T09:54:42.917Z,65.47
2019-02-26T09:55:40.969Z,64.75
2019-02-26T09:56:40.985Z,63.59
2019-02-26T09:57:40.939Z,64.07
2019-02-26T09:58:42.898Z,62.74
2019-02-26T09:59:40.927Z,62.10
2019-02-26T10:00:42.914Z,62.10
2019-02-26T10:01:42.850Z,62.68
2019-02-26T10:02:42.509Z,61.96
2019-02-26T10:03:41.430Z,61.83
2019-02-26T10:04:42.488Z,60.60
2019-02-26T10:05:40.897Z,60.60
2019-02-26T10:06:42.613Z,60.58
2019-02-26T10:07:40.833Z,60.03
2019-02-26T10:08:40.822Z,59.42
2019-02-26T10:09:45.764Z,59.42
2019-02-26T10:10:41.815Z,56.97
2019-02-26T10:11:42.471Z,58.50
2019-02-26T10:12:40.780Z,58.58
2019-02-26T10:13:42.024Z,56.76
2019-02-26T10:14:40.788Z,56.97
2019-02-26T10:15:42.765Z,57.15
2019-02-26T10:16:40.730Z,58.37
2019-02-26T10:17:42.689Z,56.92
2019-02-26T10:18:40.737Z,56.40
2019-02-26T10:19:42.885Z,58.42
2019-02-26T10:20:42.713Z,58.50
2019-02-26T10:21:43.120Z,56.35
2019-02-26T10:22:40.668Z,56.32
2019-02-26T10:23:40.666Z,56.32
2019-02-26T10:24:40.701Z,56.12
2019-02-26T10:25:40.660Z,54.36
2019-02-26T10:26:41.483Z,55.99
2019-02-26T10:27:43.009Z,53.55
2019-02-26T10:28:42.694Z,53.75
2019-02-26T10:29:42.990Z,55.38
2019-02-26T10:30:41.678Z,55.28
2019-02-26T10:31:41.210Z,55.38
2019-02-26T10:32:40.576Z,53.34
2019-02-26T10:33:43.069Z,53.83
2019-02-26T10:34:40.528Z,54.26
2019-02-26T10:35:42.754Z,54.44
2019-02-26T10:36:43.521Z,53.72
2019-02-26T10:37:43.546Z,53.01
2019-02-26T10:38:40.509Z,52.70
2019-02-26T10:39:42.215Z,52.29
2019-02-26T10:40:50.750Z,51.48
2019-02-26T10:41:42.310Z,52.40
2019-02-26T10:42:40.438Z,53.09
2019-02-26T10:43:40.448Z,51.99
2019-02-26T10:44:42.635Z,53.83
2019-02-26T10:45:44.153Z,53.29
2019-02-26T10:46:42.561Z,53.80
2019-02-26T10:47:40.388Z,52.15
2019-02-26T10:48:41.633Z,51.84
2019-02-26T10:49:40.398Z,53.09
2019-02-26T10:50:42.604Z,53.37
2019-02-26T10:51:42.612Z,52.73
2019-02-26T10:52:40.335Z,52.81
2019-02-26T10:53:40.315Z,51.18
2019-02-26T10:54:43.475Z,50.04
2019-02-26T10:55:41.833Z,51.67
2019-02-26T10:56:42.584Z,49.43
2019-02-26T10:57:40.271Z,48.13
2019-02-26T10:58:40.270Z,49.37
2019-02-26T10:59:42.212Z,47.92
2019-02-26T11:00:40.241Z,47.62
2019-02-26T11:01:40.235Z,47.24
2019-02-26T11:02:40.705Z,46.32
2019-02-26T11:03:43.440Z,49.65
2019-02-26T11:04:41.857Z,47.42
2019-02-26T11:05:42.391Z,46.68
2019-02-26T11:06:42.275Z,45.95
2019-02-26T11:07:40.210Z,44.95
2019-02-26T11:08:40.154Z,46.17
2019-02-26T11:09:40.177Z,47.37
2019-02-26T11:10:43.974Z,45.84
2019-02-26T11:11:42.226Z,44.30
2019-02-26T11:12:40.114Z,42.98
2019-02-26T11:13:42.581Z,43.59
2019-02-26T11:14:41.935Z,46.03
2019-02-26T11:15:40.173Z,46.01
2019-02-26T11:16:40.063Z,44.67
2019-02-26T11:17:40.078Z,43.55
2019-02-26T11:18:42.546Z,44.74
2019-02-26T11:19:41.842Z,41.19
2019-02-26T11:20:40.044Z,42.90
2019-02-26T11:21:40.007Z,40.34
2019-02-26T11:22:42.217Z,34.38
2019-02-26T11:23:41.607Z,35.78
2019-02-26T11:24:39.978Z,38.13
2019-02-26T11:25:39.961Z,37.73
2019-02-26T11:26:40.947Z,39.96
2019-02-26T11:27:40.897Z,39.15
2019-02-26T11:28:40.556Z,38.34
2019-02-26T11:29:40.763Z,38.64
2019-02-26T11:30:39.909Z,39.04
2019-02-26T11:31:41.867Z,38.01
2019-02-26T11:32:41.857Z,36.61
2019-02-26T11:33:39.878Z,34.36
2019-02-26T11:34:39.859Z,36.19
2019-02-26T11:35:42.144Z,35.78
2019-02-26T11:36:41.011Z,36.08
2019-02-26T11:37:39.830Z,34.55
2019-02-26T11:38:42.114Z,35.77
2019-02-26T11:39:39.810Z,36.68
2019-02-26T11:40:39.821Z,35.78
2019-02-26T11:41:39.787Z,34.67
2019-02-26T11:42:40.520Z,34.85
2019-02-26T11:43:39.763Z,34.64
2019-02-26T11:44:39.819Z,33.44
2019-02-26T11:45:41.833Z,31.61
2019-02-26T11:46:39.744Z,32.23
2019-02-26T11:47:41.300Z,32.93
2019-02-26T11:48:39.706Z,31.21
2019-02-26T11:49:41.660Z,31.71
2019-02-26T11:50:44.237Z,31.41
2019-02-26T11:51:41.852Z,32.10
2019-02-26T11:52:39.888Z,33.32
2019-02-26T11:53:39.650Z,33.62
2019-02-26T11:54:40.273Z,32.29
2019-02-26T11:55:39.659Z,31.18
2019-02-26T11:56:42.577Z,32.88
2019-02-26T11:57:40.396Z,30.46
2019-02-26T11:58:39.612Z,31.45
2019-02-26T11:59:41.058Z,30.64
2019-02-26T12:00:42.286Z,29.33
2019-02-26T12:01:41.989Z,29.73
2019-02-26T12:02:42.982Z,30.84
2019-02-26T12:03:41.649Z,30.54
2019-02-26T12:04:39.528Z,31.15
2019-02-26T12:05:41.755Z,29.63
2019-02-26T12:06:39.506Z,31.43
2019-02-26T12:07:39.497Z,30.93
2019-02-26T12:08:40.575Z,31.12
2019-02-26T12:09:40.705Z,31.23
2019-02-26T12:10:40.549Z,31.22
2019-02-26T12:11:39.453Z,33.56
2019-02-26T12:12:39.442Z,29.93
2019-02-26T12:13:40.128Z,31.05
2019-02-26T12:14:42.676Z,30.64
2019-02-26T12:15:42.582Z,28.81
2019-02-26T12:16:39.396Z,30.63
2019-02-26T12:17:39.384Z,29.72
2019-02-26T12:18:41.455Z,30.91
2019-02-26T12:19:39.362Z,27.18
2019-02-26T12:20:40.952Z,27.48
2019-02-26T12:21:39.341Z,27.18
2019-02-26T12:22:41.090Z,27.08
2019-02-26T12:23:41.654Z,27.98
2019-02-26T12:24:39.333Z,27.39
2019-02-26T12:25:39.303Z,27.89
2019-02-26T12:26:39.307Z,26.87
2019-02-26T12:27:41.327Z,27.39
2019-02-26T12:28:40.391Z,27.19
2019-02-26T12:29:40.216Z,26.48
2019-02-26T12:30:41.095Z,27.10
2019-02-26T12:31:39.303Z,25.59
2019-02-26T12:32:39.221Z,24.77
2019-02-26T12:33:39.212Z,23.56
2019-02-26T12:34:41.212Z,24.07
2019-02-26T12:35:40.600Z,25.40
2019-02-26T12:36:39.236Z,24.57
2019-02-26T12:37:39.162Z,25.98
2019-02-26T12:38:39.151Z,25.17
2019-02-26T12:39:39.142Z,26.58
2019-02-26T12:40:42.574Z,25.96
2019-02-26T12:41:41.730Z,23.84
2019-02-26T12:42:40.104Z,24.35
2019-02-26T12:43:42.642Z,25.16
2019-02-26T12:44:42.297Z,26.77
2019-02-26T12:45:40.681Z,23.84
2019-02-26T12:46:39.061Z,25.66
2019-02-26T12:47:40.702Z,24.85
2019-02-26T12:48:41.810Z,25.36
2019-02-26T12:49:42.240Z,28.80
2019-02-26T12:50:40.455Z,25.76
2019-02-26T12:51:39.005Z,24.15
2019-02-26T12:52:39.023Z,25.07